sensor_id;sensor_type;location;lat;lon;timestamp;P1;durP1;ratioP1;P2;durP2;ratioP2
72557;SDS011;60583;50.094;8.748;2022-08-19T00:00:23;18.13;;;12.05;;
72557;SDS011;60583;50.094;8.748;2022-08-19T00:02:48;17.20;;;11.65;;
72557;SDS011;60583;50.094;8.748;2022-08-19T00:05:14;15.25;;;10.82;;
72557;SDS011;60583;50.094;8.748;2022-08-19T00:07:40;15.80;;;11.40;;
72557;SDS011;60583;50.094;8.748;2022-08-19T00:10:08;16.20;;;11.57;;
72557;SDS011;60583;50.094;8.748;2022-08-19T00:12:35;16.10;;;11.13;;
72557;SDS011;60583;50.094;8.748;2022-08-19T00:15:03;17.17;;;12.93;;
72557;SDS011;60583;50.094;8.748;2022-08-19T00:17:30;17.80;;;12.77;;
72557;SDS011;60583;50.094;8.748;2022-08-19T00:19:55;17.50;;;12.23;;
72557;SDS011;60583;50.094;8.748;2022-08-19T00:22:21;15.75;;;11.32;;
72557;SDS011;60583;50.094;8.748;2022-08-19T00:24:46;17.55;;;11.93;;
72557;SDS011;60583;50.094;8.748;2022-08-19T00:27:12;16.73;;;11.73;;
72557;SDS011;60583;50.094;8.748;2022-08-19T00:29:37;16.38;;;11.40;;
72557;SDS011;60583;50.094;8.748;2022-08-19T00:32:03;17.83;;;12.18;;
72557;SDS011;60583;50.094;8.748;2022-08-19T00:34:29;15.63;;;11.05;;
72557;SDS011;60583;50.094;8.748;2022-08-19T00:36:55;18.23;;;11.70;;
72557;SDS011;60583;50.094;8.748;2022-08-19T00:39:21;17.30;;;11.68;;
72557;SDS011;60583;50.094;8.748;2022-08-19T00:41:47;16.30;;;11.20;;
72557;SDS011;60583;50.094;8.748;2022-08-19T00:44:21;15.32;;;11.20;;
72557;SDS011;60583;50.094;8.748;2022-08-19T00:46:49;16.60;;;11.30;;
72557;SDS011;60583;50.094;8.748;2022-08-19T00:49:25;17.42;;;11.88;;
72557;SDS011;60583;50.094;8.748;2022-08-19T00:52:00;17.40;;;11.50;;
72557;SDS011;60583;50.094;8.748;2022-08-19T00:54:29;15.95;;;11.18;;
72557;SDS011;60583;50.094;8.748;2022-08-19T00:56:57;15.57;;;11.38;;
72557;SDS011;60583;50.094;8.748;2022-08-19T00:59:24;16.50;;;11.90;;
72557;SDS011;60583;50.094;8.748;2022-08-19T01:01:50;17.17;;;11.23;;
72557;SDS011;60583;50.094;8.748;2022-08-19T01:04:16;17.30;;;11.75;;
72557;SDS011;60583;50.094;8.748;2022-08-19T01:06:41;17.13;;;12.15;;
72557;SDS011;60583;50.094;8.748;2022-08-19T01:09:07;15.98;;;11.55;;
72557;SDS011;60583;50.094;8.748;2022-08-19T01:11:34;16.90;;;11.38;;
72557;SDS011;60583;50.094;8.748;2022-08-19T01:14:03;15.32;;;10.55;;
72557;SDS011;60583;50.094;8.748;2022-08-19T01:16:30;17.55;;;11.88;;
72557;SDS011;60583;50.094;8.748;2022-08-19T01:18:58;18.27;;;12.05;;
72557;SDS011;60583;50.094;8.748;2022-08-19T01:21:34;15.80;;;11.32;;
72557;SDS011;60583;50.094;8.748;2022-08-19T01:26:40;16.80;;;11.27;;
72557;SDS011;60583;50.094;8.748;2022-08-19T01:29:08;16.98;;;11.45;;
72557;SDS011;60583;50.094;8.748;2022-08-19T01:31:34;15.48;;;11.30;;
72557;SDS011;60583;50.094;8.748;2022-08-19T01:34:01;16.70;;;11.40;;
72557;SDS011;60583;50.094;8.748;2022-08-19T01:36:33;15.98;;;11.00;;
72557;SDS011;60583;50.094;8.748;2022-08-19T01:39:11;15.63;;;11.45;;
72557;SDS011;60583;50.094;8.748;2022-08-19T01:41:38;14.38;;;10.52;;
72557;SDS011;60583;50.094;8.748;2022-08-19T01:44:04;15.55;;;11.05;;
72557;SDS011;60583;50.094;8.748;2022-08-19T01:46:31;14.00;;;10.77;;
72557;SDS011;60583;50.094;8.748;2022-08-19T01:48:57;14.85;;;10.65;;
72557;SDS011;60583;50.094;8.748;2022-08-19T01:51:23;16.70;;;11.93;;
72557;SDS011;60583;50.094;8.748;2022-08-19T01:53:49;14.55;;;10.95;;
72557;SDS011;60583;50.094;8.748;2022-08-19T01:56:16;13.25;;;10.27;;
72557;SDS011;60583;50.094;8.748;2022-08-19T01:58:44;14.43;;;10.63;;
72557;SDS011;60583;50.094;8.748;2022-08-19T02:01:15;15.65;;;10.65;;
72557;SDS011;60583;50.094;8.748;2022-08-19T02:03:41;16.30;;;10.95;;
72557;SDS011;60583;50.094;8.748;2022-08-19T02:06:07;14.70;;;9.95;;
72557;SDS011;60583;50.094;8.748;2022-08-19T02:08:33;14.48;;;10.55;;
72557;SDS011;60583;50.094;8.748;2022-08-19T02:11:01;14.38;;;9.80;;
72557;SDS011;60583;50.094;8.748;2022-08-19T02:13:27;16.08;;;10.32;;
72557;SDS011;60583;50.094;8.748;2022-08-19T02:15:52;14.57;;;10.60;;
72557;SDS011;60583;50.094;8.748;2022-08-19T02:18:18;14.30;;;10.23;;
72557;SDS011;60583;50.094;8.748;2022-08-19T02:20:44;14.13;;;10.43;;
72557;SDS011;60583;50.094;8.748;2022-08-19T02:23:10;14.15;;;10.27;;
72557;SDS011;60583;50.094;8.748;2022-08-19T02:25:37;13.70;;;10.38;;
72557;SDS011;60583;50.094;8.748;2022-08-19T02:28:03;12.85;;;9.57;;
72557;SDS011;60583;50.094;8.748;2022-08-19T02:30:29;14.18;;;9.50;;
72557;SDS011;60583;50.094;8.748;2022-08-19T02:32:55;14.35;;;9.80;;
72557;SDS011;60583;50.094;8.748;2022-08-19T02:35:20;13.90;;;9.98;;
72557;SDS011;60583;50.094;8.748;2022-08-19T02:37:46;13.05;;;9.82;;
72557;SDS011;60583;50.094;8.748;2022-08-19T02:40:30;13.18;;;9.70;;
72557;SDS011;60583;50.094;8.748;2022-08-19T02:42:59;13.77;;;9.23;;
72557;SDS011;60583;50.094;8.748;2022-08-19T02:45:26;14.30;;;9.40;;
72557;SDS011;60583;50.094;8.748;2022-08-19T02:47:51;12.77;;;9.35;;
72557;SDS011;60583;50.094;8.748;2022-08-19T02:50:17;12.05;;;9.35;;
72557;SDS011;60583;50.094;8.748;2022-08-19T02:52:43;13.63;;;9.48;;
72557;SDS011;60583;50.094;8.748;2022-08-19T02:55:08;14.35;;;9.88;;
72557;SDS011;60583;50.094;8.748;2022-08-19T02:57:34;14.57;;;9.63;;
72557;SDS011;60583;50.094;8.748;2022-08-19T03:00:00;12.70;;;9.35;;
72557;SDS011;60583;50.094;8.748;2022-08-19T03:02:28;15.10;;;9.75;;
72557;SDS011;60583;50.094;8.748;2022-08-19T03:04:55;14.80;;;9.35;;
72557;SDS011;60583;50.094;8.748;2022-08-19T03:07:20;14.90;;;10.13;;
72557;SDS011;60583;50.094;8.748;2022-08-19T03:09:46;16.00;;;11.32;;
72557;SDS011;60583;50.094;8.748;2022-08-19T03:12:11;12.85;;;9.30;;
72557;SDS011;60583;50.094;8.748;2022-08-19T03:14:37;14.32;;;9.68;;
72557;SDS011;60583;50.094;8.748;2022-08-19T03:17:02;13.07;;;9.57;;
72557;SDS011;60583;50.094;8.748;2022-08-19T03:19:29;13.77;;;9.13;;
72557;SDS011;60583;50.094;8.748;2022-08-19T03:21:55;16.85;;;9.32;;
72557;SDS011;60583;50.094;8.748;2022-08-19T03:24:20;13.60;;;9.23;;
72557;SDS011;60583;50.094;8.748;2022-08-19T03:26:50;14.00;;;9.20;;
72557;SDS011;60583;50.094;8.748;2022-08-19T03:29:18;11.25;;;8.75;;
72557;SDS011;60583;50.094;8.748;2022-08-19T03:31:44;12.57;;;8.98;;
72557;SDS011;60583;50.094;8.748;2022-08-19T03:34:13;12.18;;;9.30;;
72557;SDS011;60583;50.094;8.748;2022-08-19T03:36:42;13.23;;;8.95;;
72557;SDS011;60583;50.094;8.748;2022-08-19T03:39:09;11.48;;;8.68;;
72557;SDS011;60583;50.094;8.748;2022-08-19T03:41:39;14.13;;;9.15;;
72557;SDS011;60583;50.094;8.748;2022-08-19T03:44:06;13.45;;;9.55;;
72557;SDS011;60583;50.094;8.748;2022-08-19T03:46:33;11.98;;;8.52;;
72557;SDS011;60583;50.094;8.748;2022-08-19T03:49:00;13.02;;;9.27;;
72557;SDS011;60583;50.094;8.748;2022-08-19T03:51:37;12.18;;;8.68;;
72557;SDS011;60583;50.094;8.748;2022-08-19T03:54:06;13.70;;;9.73;;
72557;SDS011;60583;50.094;8.748;2022-08-19T03:56:33;13.45;;;8.75;;
72557;SDS011;60583;50.094;8.748;2022-08-19T03:59:03;12.20;;;9.00;;
72557;SDS011;60583;50.094;8.748;2022-08-19T04:01:30;12.98;;;9.02;;
72557;SDS011;60583;50.094;8.748;2022-08-19T04:03:56;14.70;;;9.15;;
72557;SDS011;60583;50.094;8.748;2022-08-19T04:06:23;12.40;;;8.32;;
72557;SDS011;60583;50.094;8.748;2022-08-19T04:08:51;12.75;;;9.00;;
72557;SDS011;60583;50.094;8.748;2022-08-19T04:11:25;13.52;;;9.00;;
72557;SDS011;60583;50.094;8.748;2022-08-19T04:13:53;12.82;;;8.98;;
72557;SDS011;60583;50.094;8.748;2022-08-19T04:16:20;13.02;;;8.82;;
72557;SDS011;60583;50.094;8.748;2022-08-19T04:18:46;12.95;;;8.82;;
72557;SDS011;60583;50.094;8.748;2022-08-19T04:21:20;12.50;;;8.40;;
72557;SDS011;60583;50.094;8.748;2022-08-19T04:23:47;13.32;;;9.40;;
72557;SDS011;60583;50.094;8.748;2022-08-19T04:26:18;12.02;;;8.95;;
72557;SDS011;60583;50.094;8.748;2022-08-19T04:28:46;12.90;;;9.60;;
72557;SDS011;60583;50.094;8.748;2022-08-19T04:31:12;13.15;;;9.05;;
72557;SDS011;60583;50.094;8.748;2022-08-19T04:33:40;11.88;;;8.70;;
72557;SDS011;60583;50.094;8.748;2022-08-19T04:36:05;14.48;;;9.40;;
72557;SDS011;60583;50.094;8.748;2022-08-19T04:38:31;14.02;;;9.00;;
72557;SDS011;60583;50.094;8.748;2022-08-19T04:40:56;13.75;;;9.70;;
72557;SDS011;60583;50.094;8.748;2022-08-19T04:43:40;12.77;;;8.80;;
72557;SDS011;60583;50.094;8.748;2022-08-19T04:46:06;14.05;;;9.52;;
72557;SDS011;60583;50.094;8.748;2022-08-19T04:48:37;13.35;;;8.43;;
72557;SDS011;60583;50.094;8.748;2022-08-19T04:51:05;12.77;;;8.90;;
72557;SDS011;60583;50.094;8.748;2022-08-19T04:53:34;12.93;;;8.57;;
72557;SDS011;60583;50.094;8.748;2022-08-19T04:56:03;13.52;;;8.80;;
72557;SDS011;60583;50.094;8.748;2022-08-19T04:58:32;12.57;;;8.70;;
72557;SDS011;60583;50.094;8.748;2022-08-19T05:00:57;13.00;;;8.55;;
72557;SDS011;60583;50.094;8.748;2022-08-19T05:03:25;14.15;;;8.50;;
72557;SDS011;60583;50.094;8.748;2022-08-19T05:05:51;14.02;;;9.45;;
72557;SDS011;60583;50.094;8.748;2022-08-19T05:08:17;12.75;;;9.30;;
72557;SDS011;60583;50.094;8.748;2022-08-19T05:10:45;12.23;;;9.25;;
72557;SDS011;60583;50.094;8.748;2022-08-19T05:13:12;12.77;;;9.10;;
72557;SDS011;60583;50.094;8.748;2022-08-19T05:15:37;14.15;;;8.93;;
72557;SDS011;60583;50.094;8.748;2022-08-19T05:18:03;13.07;;;9.45;;
72557;SDS011;60583;50.094;8.748;2022-08-19T05:20:47;13.70;;;9.38;;
72557;SDS011;60583;50.094;8.748;2022-08-19T05:23:31;14.00;;;9.25;;
72557;SDS011;60583;50.094;8.748;2022-08-19T05:25:56;12.85;;;9.00;;
72557;SDS011;60583;50.094;8.748;2022-08-19T05:28:21;12.88;;;8.85;;
72557;SDS011;60583;50.094;8.748;2022-08-19T05:30:47;12.18;;;8.88;;
72557;SDS011;60583;50.094;8.748;2022-08-19T05:33:13;12.40;;;9.05;;
72557;SDS011;60583;50.094;8.748;2022-08-19T05:35:39;13.10;;;8.80;;
72557;SDS011;60583;50.094;8.748;2022-08-19T05:38:06;14.70;;;9.30;;
72557;SDS011;60583;50.094;8.748;2022-08-19T05:40:36;14.07;;;8.77;;
72557;SDS011;60583;50.094;8.748;2022-08-19T05:43:04;14.18;;;8.88;;
72557;SDS011;60583;50.094;8.748;2022-08-19T05:45:31;12.35;;;8.43;;
72557;SDS011;60583;50.094;8.748;2022-08-19T05:47:57;15.48;;;8.68;;
72557;SDS011;60583;50.094;8.748;2022-08-19T05:50:23;12.50;;;8.75;;
72557;SDS011;60583;50.094;8.748;2022-08-19T05:52:51;13.20;;;8.70;;
72557;SDS011;60583;50.094;8.748;2022-08-19T05:55:17;12.43;;;8.23;;
72557;SDS011;60583;50.094;8.748;2022-08-19T05:57:45;13.88;;;9.00;;
72557;SDS011;60583;50.094;8.748;2022-08-19T06:00:11;13.38;;;8.63;;
72557;SDS011;60583;50.094;8.748;2022-08-19T06:02:37;12.95;;;8.50;;
72557;SDS011;60583;50.094;8.748;2022-08-19T06:05:04;13.13;;;8.70;;
72557;SDS011;60583;50.094;8.748;2022-08-19T06:07:34;14.55;;;8.50;;
72557;SDS011;60583;50.094;8.748;2022-08-19T06:10:00;13.52;;;8.45;;
72557;SDS011;60583;50.094;8.748;2022-08-19T06:12:27;11.98;;;8.45;;
72557;SDS011;60583;50.094;8.748;2022-08-19T06:14:53;14.23;;;8.68;;
72557;SDS011;60583;50.094;8.748;2022-08-19T06:17:20;14.00;;;8.50;;
72557;SDS011;60583;50.094;8.748;2022-08-19T06:19:47;12.40;;;8.00;;
72557;SDS011;60583;50.094;8.748;2022-08-19T06:22:14;12.20;;;8.23;;
72557;SDS011;60583;50.094;8.748;2022-08-19T06:24:40;12.65;;;8.35;;
72557;SDS011;60583;50.094;8.748;2022-08-19T06:27:06;11.00;;;7.65;;
72557;SDS011;60583;50.094;8.748;2022-08-19T06:29:31;14.07;;;7.95;;
72557;SDS011;60583;50.094;8.748;2022-08-19T06:31:58;12.95;;;8.23;;
72557;SDS011;60583;50.094;8.748;2022-08-19T06:34:25;12.50;;;8.25;;
72557;SDS011;60583;50.094;8.748;2022-08-19T06:36:53;11.75;;;7.70;;
72557;SDS011;60583;50.094;8.748;2022-08-19T06:39:20;10.75;;;7.70;;
72557;SDS011;60583;50.094;8.748;2022-08-19T06:41:52;11.43;;;7.68;;
72557;SDS011;60583;50.094;8.748;2022-08-19T06:44:20;11.35;;;7.15;;
72557;SDS011;60583;50.094;8.748;2022-08-19T06:46:47;11.43;;;7.97;;
72557;SDS011;60583;50.094;8.748;2022-08-19T06:49:14;10.27;;;7.43;;
72557;SDS011;60583;50.094;8.748;2022-08-19T06:51:43;12.32;;;7.43;;
72557;SDS011;60583;50.094;8.748;2022-08-19T06:54:12;11.43;;;7.18;;
72557;SDS011;60583;50.094;8.748;2022-08-19T06:56:37;10.45;;;7.53;;
72557;SDS011;60583;50.094;8.748;2022-08-19T06:59:04;9.70;;;7.15;;
72557;SDS011;60583;50.094;8.748;2022-08-19T07:01:39;9.90;;;6.47;;
72557;SDS011;60583;50.094;8.748;2022-08-19T07:04:06;10.13;;;6.53;;
72557;SDS011;60583;50.094;8.748;2022-08-19T07:06:33;8.98;;;6.95;;
72557;SDS011;60583;50.094;8.748;2022-08-19T07:08:59;11.27;;;7.20;;
72557;SDS011;60583;50.094;8.748;2022-08-19T07:11:25;10.10;;;6.35;;
72557;SDS011;60583;50.094;8.748;2022-08-19T07:13:51;8.38;;;6.00;;
72557;SDS011;60583;50.094;8.748;2022-08-19T07:16:17;9.93;;;6.20;;
72557;SDS011;60583;50.094;8.748;2022-08-19T07:21:20;9.60;;;5.78;;
72557;SDS011;60583;50.094;8.748;2022-08-19T07:23:47;9.38;;;5.72;;
72557;SDS011;60583;50.094;8.748;2022-08-19T07:26:15;8.30;;;5.72;;
72557;SDS011;60583;50.094;8.748;2022-08-19T07:28:46;8.30;;;5.63;;
72557;SDS011;60583;50.094;8.748;2022-08-19T07:31:14;10.98;;;5.93;;
72557;SDS011;60583;50.094;8.748;2022-08-19T07:33:43;9.00;;;6.05;;
72557;SDS011;60583;50.094;8.748;2022-08-19T07:36:10;9.00;;;6.15;;
72557;SDS011;60583;50.094;8.748;2022-08-19T07:38:38;11.48;;;6.50;;
72557;SDS011;60583;50.094;8.748;2022-08-19T07:41:09;10.45;;;6.60;;
72557;SDS011;60583;50.094;8.748;2022-08-19T07:43:43;8.07;;;6.00;;
72557;SDS011;60583;50.094;8.748;2022-08-19T07:46:09;8.07;;;6.07;;
72557;SDS011;60583;50.094;8.748;2022-08-19T07:48:35;10.02;;;6.30;;
72557;SDS011;60583;50.094;8.748;2022-08-19T07:51:02;8.85;;;6.10;;
72557;SDS011;60583;50.094;8.748;2022-08-19T07:53:30;8.82;;;5.70;;
72557;SDS011;60583;50.094;8.748;2022-08-19T07:55:58;8.40;;;5.15;;
72557;SDS011;60583;50.094;8.748;2022-08-19T07:58:33;9.13;;;6.03;;
72557;SDS011;60583;50.094;8.748;2022-08-19T08:01:01;8.52;;;6.05;;
72557;SDS011;60583;50.094;8.748;2022-08-19T08:03:29;9.80;;;5.70;;
72557;SDS011;60583;50.094;8.748;2022-08-19T08:06:13;9.20;;;6.05;;
72557;SDS011;60583;50.094;8.748;2022-08-19T08:08:58;7.97;;;5.43;;
72557;SDS011;60583;50.094;8.748;2022-08-19T08:11:41;7.65;;;5.40;;
72557;SDS011;60583;50.094;8.748;2022-08-19T08:14:14;7.28;;;4.97;;
72557;SDS011;60583;50.094;8.748;2022-08-19T08:16:41;7.13;;;4.95;;
72557;SDS011;60583;50.094;8.748;2022-08-19T08:19:09;9.55;;;5.10;;
72557;SDS011;60583;50.094;8.748;2022-08-19T08:21:35;7.57;;;5.13;;
72557;SDS011;60583;50.094;8.748;2022-08-19T08:24:00;8.13;;;5.57;;
72557;SDS011;60583;50.094;8.748;2022-08-19T08:26:26;7.97;;;5.07;;
72557;SDS011;60583;50.094;8.748;2022-08-19T08:28:52;6.78;;;5.20;;
72557;SDS011;60583;50.094;8.748;2022-08-19T08:31:18;10.63;;;6.53;;
72557;SDS011;60583;50.094;8.748;2022-08-19T08:33:44;8.23;;;5.28;;
72557;SDS011;60583;50.094;8.748;2022-08-19T08:36:10;7.95;;;5.10;;
72557;SDS011;60583;50.094;8.748;2022-08-19T08:38:39;8.40;;;5.20;;
72557;SDS011;60583;50.094;8.748;2022-08-19T08:41:28;7.32;;;4.85;;
72557;SDS011;60583;50.094;8.748;2022-08-19T08:43:54;7.10;;;5.05;;
72557;SDS011;60583;50.094;8.748;2022-08-19T08:46:45;8.00;;;4.55;;
72557;SDS011;60583;50.094;8.748;2022-08-19T08:49:27;6.57;;;4.68;;
72557;SDS011;60583;50.094;8.748;2022-08-19T08:54:30;7.28;;;4.53;;
72557;SDS011;60583;50.094;8.748;2022-08-19T08:56:59;10.18;;;4.82;;
72557;SDS011;60583;50.094;8.748;2022-08-19T08:59:31;6.80;;;4.30;;
72557;SDS011;60583;50.094;8.748;2022-08-19T09:02:01;8.07;;;4.40;;
72557;SDS011;60583;50.094;8.748;2022-08-19T09:04:27;8.77;;;4.25;;
72557;SDS011;60583;50.094;8.748;2022-08-19T09:07:04;6.30;;;4.50;;
72557;SDS011;60583;50.094;8.748;2022-08-19T09:09:42;7.30;;;4.15;;
72557;SDS011;60583;50.094;8.748;2022-08-19T09:15:18;7.20;;;4.13;;
72557;SDS011;60583;50.094;8.748;2022-08-19T09:17:52;6.53;;;4.18;;
72557;SDS011;60583;50.094;8.748;2022-08-19T09:20:22;6.65;;;4.15;;
72557;SDS011;60583;50.094;8.748;2022-08-19T09:22:48;5.60;;;3.97;;
72557;SDS011;60583;50.094;8.748;2022-08-19T09:25:19;6.53;;;4.40;;
72557;SDS011;60583;50.094;8.748;2022-08-19T09:27:48;5.38;;;4.35;;
72557;SDS011;60583;50.094;8.748;2022-08-19T09:30:22;6.20;;;4.35;;
72557;SDS011;60583;50.094;8.748;2022-08-19T09:32:50;6.30;;;4.28;;
72557;SDS011;60583;50.094;8.748;2022-08-19T09:35:18;6.93;;;3.97;;
72557;SDS011;60583;50.094;8.748;2022-08-19T09:37:44;6.38;;;4.90;;
72557;SDS011;60583;50.094;8.748;2022-08-19T09:40:09;5.55;;;4.20;;
72557;SDS011;60583;50.094;8.748;2022-08-19T09:42:36;6.43;;;4.38;;
72557;SDS011;60583;50.094;8.748;2022-08-19T09:45:01;5.53;;;4.40;;
72557;SDS011;60583;50.094;8.748;2022-08-19T09:47:28;6.13;;;4.45;;
72557;SDS011;60583;50.094;8.748;2022-08-19T09:49:54;5.97;;;4.47;;
72557;SDS011;60583;50.094;8.748;2022-08-19T09:52:20;5.97;;;4.32;;
72557;SDS011;60583;50.094;8.748;2022-08-19T09:54:45;6.68;;;4.32;;
72557;SDS011;60583;50.094;8.748;2022-08-19T09:57:11;7.20;;;4.30;;
72557;SDS011;60583;50.094;8.748;2022-08-19T09:59:36;7.18;;;4.78;;
72557;SDS011;60583;50.094;8.748;2022-08-19T10:02:02;7.65;;;5.00;;
72557;SDS011;60583;50.094;8.748;2022-08-19T10:04:27;7.28;;;4.45;;
72557;SDS011;60583;50.094;8.748;2022-08-19T10:07:13;8.88;;;4.75;;
72557;SDS011;60583;50.094;8.748;2022-08-19T10:09:39;7.45;;;5.22;;
72557;SDS011;60583;50.094;8.748;2022-08-19T10:12:06;8.55;;;5.00;;
72557;SDS011;60583;50.094;8.748;2022-08-19T10:14:32;9.07;;;5.07;;
72557;SDS011;60583;50.094;8.748;2022-08-19T10:16:58;7.68;;;4.90;;
72557;SDS011;60583;50.094;8.748;2022-08-19T10:19:25;6.90;;;4.85;;
72557;SDS011;60583;50.094;8.748;2022-08-19T10:21:51;6.93;;;4.70;;
72557;SDS011;60583;50.094;8.748;2022-08-19T10:24:16;6.05;;;4.88;;
72557;SDS011;60583;50.094;8.748;2022-08-19T10:26:41;7.15;;;5.05;;
72557;SDS011;60583;50.094;8.748;2022-08-19T10:29:12;7.05;;;5.30;;
72557;SDS011;60583;50.094;8.748;2022-08-19T10:31:40;6.22;;;5.18;;
72557;SDS011;60583;50.094;8.748;2022-08-19T10:34:07;6.28;;;5.68;;
72557;SDS011;60583;50.094;8.748;2022-08-19T10:36:34;8.10;;;5.72;;
72557;SDS011;60583;50.094;8.748;2022-08-19T10:39:02;9.57;;;7.10;;
72557;SDS011;60583;50.094;8.748;2022-08-19T10:41:33;6.82;;;6.13;;
72557;SDS011;60583;50.094;8.748;2022-08-19T10:44:01;7.82;;;6.18;;
72557;SDS011;60583;50.094;8.748;2022-08-19T10:46:30;8.45;;;6.20;;
72557;SDS011;60583;50.094;8.748;2022-08-19T10:48:58;7.43;;;6.05;;
72557;SDS011;60583;50.094;8.748;2022-08-19T10:51:25;7.10;;;5.80;;
72557;SDS011;60583;50.094;8.748;2022-08-19T10:54:09;7.45;;;6.00;;
72557;SDS011;60583;50.094;8.748;2022-08-19T10:56:34;7.78;;;6.32;;
72557;SDS011;60583;50.094;8.748;2022-08-19T11:01:46;7.13;;;5.78;;
72557;SDS011;60583;50.094;8.748;2022-08-19T11:04:12;7.22;;;5.85;;
72557;SDS011;60583;50.094;8.748;2022-08-19T11:06:41;6.32;;;5.00;;
72557;SDS011;60583;50.094;8.748;2022-08-19T11:11:35;6.80;;;5.45;;
72557;SDS011;60583;50.094;8.748;2022-08-19T11:14:05;7.63;;;6.22;;
72557;SDS011;60583;50.094;8.748;2022-08-19T11:16:32;8.23;;;6.57;;
72557;SDS011;60583;50.094;8.748;2022-08-19T11:18:58;7.72;;;6.32;;
72557;SDS011;60583;50.094;8.748;2022-08-19T11:21:25;7.95;;;6.35;;
72557;SDS011;60583;50.094;8.748;2022-08-19T11:24:03;7.72;;;6.95;;
72557;SDS011;60583;50.094;8.748;2022-08-19T11:26:35;8.18;;;6.40;;
72557;SDS011;60583;50.094;8.748;2022-08-19T11:29:03;8.55;;;7.13;;
72557;SDS011;60583;50.094;8.748;2022-08-19T11:31:30;10.38;;;7.80;;
72557;SDS011;60583;50.094;8.748;2022-08-19T11:33:59;8.48;;;7.47;;
72557;SDS011;60583;50.094;8.748;2022-08-19T11:36:26;10.90;;;6.70;;
72557;SDS011;60583;50.094;8.748;2022-08-19T11:38:52;8.23;;;6.90;;
72557;SDS011;60583;50.094;8.748;2022-08-19T11:41:19;9.13;;;7.03;;
72557;SDS011;60583;50.094;8.748;2022-08-19T11:43:47;10.43;;;7.32;;
72557;SDS011;60583;50.094;8.748;2022-08-19T11:46:13;9.30;;;8.35;;
72557;SDS011;60583;50.094;8.748;2022-08-19T11:48:40;9.80;;;7.70;;
72557;SDS011;60583;50.094;8.748;2022-08-19T11:51:07;9.80;;;8.50;;
72557;SDS011;60583;50.094;8.748;2022-08-19T11:53:35;9.38;;;8.25;;
72557;SDS011;60583;50.094;8.748;2022-08-19T11:56:02;9.20;;;8.23;;
72557;SDS011;60583;50.094;8.748;2022-08-19T11:58:28;10.27;;;8.50;;
72557;SDS011;60583;50.094;8.748;2022-08-19T12:00:54;10.23;;;8.95;;
72557;SDS011;60583;50.094;8.748;2022-08-19T12:03:20;11.45;;;9.18;;
72557;SDS011;60583;50.094;8.748;2022-08-19T12:05:46;10.65;;;8.85;;
72557;SDS011;60583;50.094;8.748;2022-08-19T12:08:12;10.18;;;8.75;;
72557;SDS011;60583;50.094;8.748;2022-08-19T12:10:40;9.70;;;8.38;;
72557;SDS011;60583;50.094;8.748;2022-08-19T12:13:07;9.20;;;8.20;;
72557;SDS011;60583;50.094;8.748;2022-08-19T12:15:37;9.25;;;8.27;;
72557;SDS011;60583;50.094;8.748;2022-08-19T12:18:05;10.82;;;8.20;;
72557;SDS011;60583;50.094;8.748;2022-08-19T12:20:33;10.10;;;8.40;;
72557;SDS011;60583;50.094;8.748;2022-08-19T12:23:05;10.65;;;8.60;;
72557;SDS011;60583;50.094;8.748;2022-08-19T12:25:32;9.45;;;8.45;;
72557;SDS011;60583;50.094;8.748;2022-08-19T12:27:58;10.95;;;9.30;;
72557;SDS011;60583;50.094;8.748;2022-08-19T12:30:24;10.20;;;9.00;;
72557;SDS011;60583;50.094;8.748;2022-08-19T12:32:49;10.32;;;8.55;;
72557;SDS011;60583;50.094;8.748;2022-08-19T12:35:16;10.18;;;8.23;;
72557;SDS011;60583;50.094;8.748;2022-08-19T12:37:42;9.75;;;8.32;;
72557;SDS011;60583;50.094;8.748;2022-08-19T12:40:09;8.88;;;7.72;;
72557;SDS011;60583;50.094;8.748;2022-08-19T12:42:37;10.57;;;8.30;;
72557;SDS011;60583;50.094;8.748;2022-08-19T12:45:07;9.55;;;8.55;;
72557;SDS011;60583;50.094;8.748;2022-08-19T12:47:37;10.88;;;8.55;;
72557;SDS011;60583;50.094;8.748;2022-08-19T12:50:03;10.00;;;9.00;;
72557;SDS011;60583;50.094;8.748;2022-08-19T12:52:32;9.95;;;8.48;;
72557;SDS011;60583;50.094;8.748;2022-08-19T12:54:58;10.07;;;8.32;;
72557;SDS011;60583;50.094;8.748;2022-08-19T12:57:24;10.43;;;9.18;;
72557;SDS011;60583;50.094;8.748;2022-08-19T12:59:53;9.35;;;8.35;;
72557;SDS011;60583;50.094;8.748;2022-08-19T13:02:19;9.65;;;8.10;;
72557;SDS011;60583;50.094;8.748;2022-08-19T13:04:44;10.35;;;9.32;;
72557;SDS011;60583;50.094;8.748;2022-08-19T13:07:10;9.50;;;8.45;;
72557;SDS011;60583;50.094;8.748;2022-08-19T13:09:36;11.57;;;9.63;;
72557;SDS011;60583;50.094;8.748;2022-08-19T13:12:01;10.30;;;8.88;;
72557;SDS011;60583;50.094;8.748;2022-08-19T13:14:29;9.18;;;8.27;;
72557;SDS011;60583;50.094;8.748;2022-08-19T13:16:56;11.02;;;8.38;;
72557;SDS011;60583;50.094;8.748;2022-08-19T13:19:22;10.05;;;7.95;;
72557;SDS011;60583;50.094;8.748;2022-08-19T13:21:51;9.18;;;8.18;;
72557;SDS011;60583;50.094;8.748;2022-08-19T13:24:17;9.35;;;8.20;;
72557;SDS011;60583;50.094;8.748;2022-08-19T13:26:43;11.27;;;9.05;;
72557;SDS011;60583;50.094;8.748;2022-08-19T13:29:08;9.32;;;8.07;;
72557;SDS011;60583;50.094;8.748;2022-08-19T13:31:53;11.15;;;8.55;;
72557;SDS011;60583;50.094;8.748;2022-08-19T13:34:36;9.38;;;7.70;;
72557;SDS011;60583;50.094;8.748;2022-08-19T13:37:02;10.50;;;7.13;;
72557;SDS011;60583;50.094;8.748;2022-08-19T13:39:30;8.60;;;7.43;;
72557;SDS011;60583;50.094;8.748;2022-08-19T13:41:57;8.93;;;7.05;;
72557;SDS011;60583;50.094;8.748;2022-08-19T13:44:25;8.02;;;7.13;;
72557;SDS011;60583;50.094;8.748;2022-08-19T13:46:50;7.90;;;6.82;;
72557;SDS011;60583;50.094;8.748;2022-08-19T13:49:17;9.57;;;7.03;;
72557;SDS011;60583;50.094;8.748;2022-08-19T13:51:42;9.23;;;7.03;;
72557;SDS011;60583;50.094;8.748;2022-08-19T13:54:08;7.95;;;7.05;;
72557;SDS011;60583;50.094;8.748;2022-08-19T13:56:35;7.85;;;6.78;;
72557;SDS011;60583;50.094;8.748;2022-08-19T13:59:04;8.00;;;6.68;;
72557;SDS011;60583;50.094;8.748;2022-08-19T14:01:30;9.00;;;6.43;;
72557;SDS011;60583;50.094;8.748;2022-08-19T14:03:55;8.27;;;6.80;;
72557;SDS011;60583;50.094;8.748;2022-08-19T14:06:21;10.02;;;6.78;;
72557;SDS011;60583;50.094;8.748;2022-08-19T14:08:47;9.25;;;6.53;;
72557;SDS011;60583;50.094;8.748;2022-08-19T14:11:12;7.90;;;6.53;;
72557;SDS011;60583;50.094;8.748;2022-08-19T14:13:38;7.30;;;6.40;;
72557;SDS011;60583;50.094;8.748;2022-08-19T14:16:08;8.20;;;6.28;;
72557;SDS011;60583;50.094;8.748;2022-08-19T14:18:35;8.15;;;6.00;;
72557;SDS011;60583;50.094;8.748;2022-08-19T14:21:00;6.97;;;6.28;;
72557;SDS011;60583;50.094;8.748;2022-08-19T14:23:27;8.05;;;6.10;;
72557;SDS011;60583;50.094;8.748;2022-08-19T14:25:54;9.23;;;8.02;;
72557;SDS011;60583;50.094;8.748;2022-08-19T14:28:32;10.55;;;8.88;;
72557;SDS011;60583;50.094;8.748;2022-08-19T14:30:57;8.32;;;6.95;;
72557;SDS011;60583;50.094;8.748;2022-08-19T14:33:22;8.95;;;6.43;;
72557;SDS011;60583;50.094;8.748;2022-08-19T14:35:48;7.28;;;6.00;;
72557;SDS011;60583;50.094;8.748;2022-08-19T14:38:17;8.63;;;6.50;;
72557;SDS011;60583;50.094;8.748;2022-08-19T14:40:43;6.53;;;5.57;;
72557;SDS011;60583;50.094;8.748;2022-08-19T14:43:09;6.47;;;5.22;;
72557;SDS011;60583;50.094;8.748;2022-08-19T14:45:36;6.07;;;5.43;;
72557;SDS011;60583;50.094;8.748;2022-08-19T14:48:06;6.20;;;5.38;;
72557;SDS011;60583;50.094;8.748;2022-08-19T14:50:32;7.40;;;5.60;;
72557;SDS011;60583;50.094;8.748;2022-08-19T14:52:59;8.00;;;5.53;;
72557;SDS011;60583;50.094;8.748;2022-08-19T14:55:30;6.20;;;5.10;;
72557;SDS011;60583;50.094;8.748;2022-08-19T14:57:56;6.65;;;5.05;;